createdAt,value
2022-09-09T00:00:20.436Z,48.75
2022-09-09T00:02:57.966Z,45.00
2022-09-09T00:05:34.477Z,46.00
2022-09-09T00:08:06.272Z,43.75
2022-09-09T00:10:36.487Z,46.00
2022-09-09T00:13:23.783Z,46.75
2022-09-09T00:16:05.390Z,48.50
2022-09-09T00:18:48.520Z,49.00
2022-09-09T00:21:19.646Z,46.25
2022-09-09T00:23:58.673Z,54.00
2022-09-09T00:26:42.821Z,45.50
2022-09-09T00:29:21.064Z,52.75
2022-09-09T00:31:52.493Z,51.00
2022-09-09T00:34:24.220Z,54.00
2022-09-09T00:36:55.426Z,54.75
2022-09-09T00:39:24.910Z,55.00
2022-09-09T00:42:12.554Z,55.25
2022-09-09T00:44:50.373Z,53.50
2022-09-09T00:47:23.335Z,48.50
2022-09-09T00:50:11.226Z,56.25
2022-09-09T00:52:56.465Z,51.75
2022-09-09T00:55:42.633Z,52.50
2022-09-09T00:58:13.024Z,51.00
2022-09-09T01:01:01.010Z,47.75
2022-09-09T01:03:36.853Z,48.25
2022-09-09T01:06:18.582Z,46.75
2022-09-09T01:08:54.320Z,46.00
2022-09-09T01:11:29.105Z,47.50
2022-09-09T01:14:23.768Z,44.50
2022-09-09T01:16:57.522Z,47.75
2022-09-09T01:19:33.383Z,50.25
2022-09-09T01:22:17.097Z,47.25
2022-09-09T01:25:06.754Z,48.25
2022-09-09T01:27:56.565Z,40.50
2022-09-09T01:30:26.731Z,45.25
2022-09-09T01:33:01.023Z,46.75
2022-09-09T01:35:33.913Z,47.00
2022-09-09T01:38:05.149Z,46.75
2022-09-09T01:40:36.441Z,47.25
2022-09-09T01:43:06.805Z,49.75
2022-09-09T01:45:37.557Z,47.00
2022-09-09T01:48:07.754Z,51.75
2022-09-09T01:50:48.588Z,54.50
2022-09-09T01:53:19.811Z,46.75
2022-09-09T01:56:16.295Z,44.50
2022-09-09T01:59:04.712Z,45.75
2022-09-09T02:01:53.132Z,46.50
2022-09-09T02:04:35.779Z,45.25
2022-09-09T02:07:29.366Z,50.25
2022-09-09T02:10:22.422Z,44.50
2022-09-09T02:13:14.034Z,44.00
2022-09-09T02:15:52.846Z,48.75
2022-09-09T02:18:52.324Z,45.75
2022-09-09T02:21:32.155Z,45.50
2022-09-09T02:24:06.860Z,50.75
2022-09-09T02:26:43.329Z,49.75
2022-09-09T02:29:17.660Z,46.25
2022-09-09T02:31:48.885Z,46.50
2022-09-09T02:34:27.001Z,48.75
2022-09-09T02:36:58.652Z,48.50
2022-09-09T02:39:29.988Z,45.25
2022-09-09T02:42:03.496Z,51.50
2022-09-09T02:44:40.134Z,43.75
2022-09-09T02:50:37.273Z,46.00
2022-09-09T02:53:25.375Z,44.00
2022-09-09T02:56:01.471Z,44.00
2022-09-09T02:58:34.282Z,48.50
2022-09-09T03:01:07.865Z,47.00
2022-09-09T03:03:38.213Z,49.50
2022-09-09T03:06:14.189Z,56.75
2022-09-09T03:08:49.541Z,45.50
2022-09-09T03:11:25.553Z,48.50
2022-09-09T03:13:55.841Z,41.25
2022-09-09T03:16:27.834Z,47.50
2022-09-09T03:18:58.194Z,40.25
2022-09-09T03:21:28.834Z,48.50
2022-09-09T03:23:59.448Z,42.50
2022-09-09T03:26:33.785Z,41.50
2022-09-09T03:29:06.408Z,46.25
2022-09-09T03:31:38.585Z,40.50
2022-09-09T03:34:11.519Z,43.25
2022-09-09T03:36:41.891Z,37.25
2022-09-09T03:39:11.491Z,37.50
2022-09-09T03:41:44.244Z,44.75
2022-09-09T03:44:17.274Z,41.25
2022-09-09T03:46:47.021Z,43.00
2022-09-09T03:49:17.946Z,42.75
2022-09-09T03:51:50.646Z,42.50
2022-09-09T03:54:22.933Z,46.25
2022-09-09T03:56:53.121Z,41.50
2022-09-09T03:59:25.278Z,42.25
2022-09-09T04:01:59.017Z,39.50
2022-09-09T04:04:31.649Z,42.50
2022-09-09T04:07:01.955Z,36.25
2022-09-09T04:09:32.241Z,49.75
2022-09-09T04:12:04.775Z,40.00
2022-09-09T04:14:37.086Z,45.50
2022-09-09T04:17:09.096Z,41.75
2022-09-09T04:19:40.197Z,43.00
2022-09-09T04:22:13.475Z,43.75
2022-09-09T04:24:48.833Z,39.00
2022-09-09T04:27:21.478Z,40.00
2022-09-09T04:29:54.487Z,47.50
2022-09-09T04:32:26.115Z,43.00
2022-09-09T04:34:56.149Z,46.50
2022-09-09T04:37:36.115Z,43.75
2022-09-09T04:40:06.457Z,40.25
2022-09-09T04:42:40.031Z,43.75
2022-09-09T04:45:10.298Z,44.00
2022-09-09T04:47:40.939Z,39.50
2022-09-09T04:50:11.289Z,42.00
2022-09-09T04:52:40.920Z,43.00
2022-09-09T04:55:11.905Z,43.25
2022-09-09T04:57:45.335Z,43.50
2022-09-09T05:00:16.099Z,41.75
2022-09-09T05:02:47.266Z,44.50
2022-09-09T05:05:17.428Z,42.00
2022-09-09T05:07:47.635Z,42.00
2022-09-09T05:10:20.306Z,42.00
2022-09-09T05:12:57.047Z,39.25
2022-09-09T05:15:32.148Z,44.25
2022-09-09T05:18:03.780Z,34.25
2022-09-09T05:20:34.924Z,42.75
2022-09-09T05:23:07.850Z,37.75
2022-09-09T05:25:40.827Z,37.25
2022-09-09T05:28:11.275Z,40.75
2022-09-09T05:30:44.817Z,39.25
2022-09-09T05:33:15.187Z,40.50
2022-09-09T05:35:48.211Z,38.75
2022-09-09T05:38:28.616Z,37.50
2022-09-09T05:41:07.994Z,42.75
2022-09-09T05:43:38.606Z,37.50
2022-09-09T05:46:09.820Z,42.25
2022-09-09T05:48:42.552Z,44.75
2022-09-09T05:51:18.302Z,38.25
2022-09-09T05:53:48.833Z,35.50
2022-09-09T05:56:20.311Z,38.50
2022-09-09T05:59:03.094Z,39.00
2022-09-09T06:01:37.690Z,41.25
2022-09-09T06:04:14.004Z,36.50
2022-09-09T06:06:49.633Z,44.25
2022-09-09T06:12:13.155Z,39.50
2022-09-09T06:14:49.395Z,39.25
2022-09-09T06:17:19.377Z,36.00
2022-09-09T06:19:49.397Z,34.75
2022-09-09T06:22:18.991Z,42.50
2022-09-09T06:24:49.267Z,39.00
2022-09-09T06:27:19.572Z,41.00
2022-09-09T06:29:50.887Z,39.25
2022-09-09T06:32:20.741Z,36.25
2022-09-09T06:34:51.595Z,36.50
2022-09-09T06:37:21.488Z,37.50
2022-09-09T06:39:53.546Z,44.25
2022-09-09T06:42:23.390Z,45.50
2022-09-09T06:45:02.684Z,41.50
2022-09-09T06:47:47.437Z,43.25
2022-09-09T06:50:19.287Z,41.50
2022-09-09T06:52:53.781Z,43.75
2022-09-09T06:55:23.736Z,44.75
2022-09-09T06:57:57.717Z,43.00
2022-09-09T07:00:27.376Z,48.00
2022-09-09T07:02:57.632Z,39.50
2022-09-09T07:05:28.651Z,43.25
2022-09-09T07:07:58.445Z,39.75
2022-09-09T07:10:29.281Z,39.00
2022-09-09T07:12:58.983Z,42.25
2022-09-09T07:15:29.208Z,44.25
2022-09-09T07:18:05.941Z,45.75
2022-09-09T07:20:38.635Z,43.00
2022-09-09T07:23:08.380Z,40.75
2022-09-09T07:25:39.172Z,43.25
2022-09-09T07:28:10.996Z,43.75
2022-09-09T07:30:40.445Z,40.50
2022-09-09T07:33:09.931Z,44.25
2022-09-09T07:35:39.769Z,42.50
2022-09-09T07:38:09.579Z,46.25
2022-09-09T07:40:40.328Z,42.00
2022-09-09T07:43:12.415Z,46.50
2022-09-09T07:45:44.590Z,46.00
2022-09-09T07:48:14.418Z,46.25
2022-09-09T07:50:44.117Z,48.25
2022-09-09T07:53:14.106Z,48.75
2022-09-09T07:55:43.520Z,43.00
2022-09-09T07:58:12.854Z,42.50
2022-09-09T08:00:45.828Z,44.00
2022-09-09T08:03:15.855Z,48.00
2022-09-09T08:05:45.781Z,43.50
2022-09-09T08:08:15.287Z,48.00
2022-09-09T08:10:45.130Z,46.00
2022-09-09T08:13:18.459Z,45.50
2022-09-09T08:15:52.524Z,43.50
2022-09-09T08:18:22.891Z,44.75
2022-09-09T08:20:52.884Z,49.00
2022-09-09T08:23:22.473Z,48.75
2022-09-09T08:25:52.548Z,48.00
2022-09-09T08:28:21.924Z,48.75
2022-09-09T08:30:52.179Z,50.00
2022-09-09T08:33:22.725Z,48.25
2022-09-09T08:35:55.441Z,47.75
2022-09-09T08:38:27.143Z,50.00
2022-09-09T08:41:03.362Z,47.00
2022-09-09T08:43:34.957Z,43.25
2022-09-09T08:46:20.581Z,49.00
2022-09-09T08:49:04.404Z,53.50
2022-09-09T08:51:35.805Z,50.00
2022-09-09T08:54:07.244Z,47.25
2022-09-09T08:56:38.319Z,48.00
2022-09-09T08:59:12.872Z,52.75
2022-09-09T09:01:53.601Z,48.75
2022-09-09T09:04:46.775Z,52.75
2022-09-09T09:07:16.601Z,52.75
2022-09-09T09:09:55.204Z,54.25
2022-09-09T09:12:31.185Z,53.50
2022-09-09T09:15:02.500Z,55.75
2022-09-09T09:17:41.059Z,54.25
2022-09-09T09:20:15.768Z,52.25
2022-09-09T09:22:50.149Z,58.75
2022-09-09T09:25:23.308Z,58.75
2022-09-09T09:28:07.366Z,60.75
2022-09-09T09:30:45.325Z,61.00
2022-09-09T09:33:19.435Z,59.00
2022-09-09T09:35:51.458Z,58.25
2022-09-09T09:41:15.439Z,59.75
2022-09-09T09:43:48.664Z,60.00
2022-09-09T09:46:25.885Z,60.50
2022-09-09T09:49:00.667Z,61.75
2022-09-09T09:51:35.008Z,62.75
2022-09-09T09:54:31.551Z,57.50
2022-09-09T09:57:12.685Z,59.75
2022-09-09T09:59:44.957Z,61.75
2022-09-09T10:02:32.539Z,61.75
2022-09-09T10:05:15.853Z,64.25
2022-09-09T10:07:49.645Z,63.25
2022-09-09T10:10:27.551Z,57.00
2022-09-09T10:13:19.883Z,61.25
2022-09-09T10:16:01.104Z,60.00
2022-09-09T10:18:46.029Z,60.25
2022-09-09T10:21:39.180Z,64.00
2022-09-09T10:24:32.034Z,61.00
2022-09-09T10:27:29.051Z,66.00
2022-09-09T10:30:21.406Z,65.75
2022-09-09T10:33:03.376Z,59.25
2022-09-09T10:35:33.762Z,62.75
2022-09-09T10:38:21.989Z,66.25
2022-09-09T10:41:01.348Z,61.50
2022-09-09T10:43:37.113Z,64.25
2022-09-09T10:46:19.972Z,61.00
2022-09-09T10:48:52.717Z,60.75
2022-09-09T10:51:46.566Z,60.25
2022-09-09T10:54:19.869Z,60.75
2022-09-09T10:56:56.244Z,61.25
2022-09-09T10:59:29.460Z,64.00
2022-09-09T11:02:29.707Z,60.25
2022-09-09T11:05:08.511Z,53.50
2022-09-09T11:07:47.517Z,61.00
2022-09-09T11:10:28.211Z,62.25
2022-09-09T11:13:02.965Z,60.00
2022-09-09T11:15:43.417Z,58.75
2022-09-09T11:18:21.654Z,56.00
2022-09-09T11:20:54.196Z,61.75
2022-09-09T11:23:45.094Z,60.75
2022-09-09T11:29:14.037Z,61.75
2022-09-09T11:31:57.055Z,55.50
2022-09-09T11:37:24.335Z,58.50
2022-09-09T11:40:01.609Z,59.00
2022-09-09T11:42:45.099Z,61.50
2022-09-09T11:45:29.228Z,58.75
2022-09-09T11:48:05.324Z,61.00
2022-09-09T11:50:44.822Z,59.25
2022-09-09T11:53:17.655Z,59.75
2022-09-09T11:55:47.855Z,61.00
2022-09-09T11:58:23.230Z,61.25
2022-09-09T12:01:03.084Z,61.50
2022-09-09T12:03:42.522Z,61.75
2022-09-09T12:06:27.826Z,64.50
2022-09-09T12:09:00.079Z,59.50
2022-09-09T12:11:30.776Z,64.00
2022-09-09T12:14:06.190Z,60.25
2022-09-09T12:16:44.111Z,57.50
2022-09-09T12:19:20.134Z,59.25
2022-09-09T12:22:05.426Z,62.50
2022-09-09T12:24:44.493Z,60.50
2022-09-09T12:27:46.020Z,62.75
2022-09-09T12:30:24.236Z,66.00
2022-09-09T12:33:06.587Z,66.00
2022-09-09T12:35:36.747Z,64.75
2022-09-09T12:38:12.700Z,67.75
2022-09-09T12:40:45.628Z,63.25
2022-09-09T12:43:23.676Z,62.50
2022-09-09T12:46:03.363Z,62.00
2022-09-09T12:48:44.965Z,64.00
2022-09-09T12:51:47.649Z,63.75
2022-09-09T12:54:20.219Z,62.00
2022-09-09T12:56:56.802Z,62.50
2022-09-09T12:59:40.792Z,64.00
2022-09-09T13:02:21.316Z,62.50
2022-09-09T13:04:52.718Z,67.25
2022-09-09T13:07:28.784Z,65.50
2022-09-09T13:09:59.488Z,67.50
2022-09-09T13:12:30.199Z,65.25
2022-09-09T13:15:05.090Z,62.25
2022-09-09T13:17:35.647Z,67.75
2022-09-09T13:20:12.040Z,66.75
2022-09-09T13:22:45.309Z,64.50
2022-09-09T13:25:27.189Z,67.00
2022-09-09T13:28:10.872Z,69.75
2022-09-09T13:30:48.640Z,70.75
2022-09-09T13:33:26.168Z,74.25
2022-09-09T13:36:12.849Z,69.25
2022-09-09T13:38:59.300Z,67.25
2022-09-09T13:41:47.034Z,68.25
2022-09-09T13:44:40.620Z,68.50
2022-09-09T13:47:25.207Z,70.25
2022-09-09T13:50:01.977Z,68.75
2022-09-09T13:52:38.285Z,71.00
2022-09-09T13:55:10.961Z,70.75
2022-09-09T13:57:44.654Z,71.25
2022-09-09T14:00:20.773Z,73.25
2022-09-09T14:02:57.876Z,73.00
2022-09-09T14:05:28.268Z,74.75
2022-09-09T14:07:59.338Z,70.25
2022-09-09T14:10:35.432Z,71.75
2022-09-09T14:13:13.673Z,74.75
2022-09-09T14:15:56.327Z,71.50
2022-09-09T14:18:31.472Z,73.00
2022-09-09T14:21:02.455Z,71.75
2022-09-09T14:23:34.383Z,72.00
2022-09-09T14:26:12.911Z,74.00
2022-09-09T14:28:55.772Z,73.50
2022-09-09T14:31:36.150Z,74.25
2022-09-09T14:34:15.686Z,71.50
2022-09-09T14:36:47.594Z,73.75
2022-09-09T14:39:18.840Z,79.75
2022-09-09T14:41:49.192Z,71.25
2022-09-09T14:44:26.581Z,70.50
2022-09-09T14:46:59.421Z,68.50
2022-09-09T14:49:40.632Z,68.25
2022-09-09T14:52:22.145Z,68.00
2022-09-09T14:54:53.321Z,70.50
2022-09-09T14:57:26.121Z,66.25
2022-09-09T15:00:00.325Z,69.25
2022-09-09T15:02:32.845Z,69.00
2022-09-09T15:05:07.272Z,66.75
2022-09-09T15:07:38.380Z,68.50
2022-09-09T15:10:09.690Z,71.00
2022-09-09T15:12:44.553Z,70.00
2022-09-09T15:15:18.465Z,71.75
2022-09-09T15:17:54.105Z,71.00
2022-09-09T15:20:28.170Z,73.75
2022-09-09T15:23:02.376Z,68.25
2022-09-09T15:25:33.694Z,67.50
2022-09-09T15:28:04.381Z,67.75
2022-09-09T15:30:35.102Z,70.50
2022-09-09T15:33:16.707Z,70.75
2022-09-09T15:35:53.124Z,70.50
2022-09-09T15:38:32.848Z,71.00
2022-09-09T15:41:06.652Z,70.50
2022-09-09T15:43:38.858Z,70.25
2022-09-09T15:46:31.872Z,68.00
2022-09-09T15:49:11.300Z,68.00
2022-09-09T15:51:46.963Z,73.50
2022-09-09T15:54:39.195Z,68.25
2022-09-09T15:57:11.714Z,70.75
2022-09-09T15:59:45.661Z,70.00
2022-09-09T16:02:16.414Z,69.50
2022-09-09T16:04:47.598Z,70.75
2022-09-09T16:07:21.238Z,71.50
2022-09-09T16:10:05.797Z,69.50
2022-09-09T16:12:36.042Z,70.25
2022-09-09T16:15:19.282Z,67.75
2022-09-09T16:18:03.051Z,69.50
2022-09-09T16:20:49.216Z,72.50
2022-09-09T16:23:20.365Z,70.50
2022-09-09T16:25:59.661Z,70.25
2022-09-09T16:28:41.554Z,71.00
2022-09-09T16:31:16.609Z,70.25
2022-09-09T16:33:50.423Z,71.75
2022-09-09T16:36:28.889Z,74.75
2022-09-09T16:39:08.215Z,72.75
2022-09-09T16:41:42.603Z,72.50
2022-09-09T16:44:17.961Z,72.75
2022-09-09T16:46:51.232Z,74.25
2022-09-09T16:49:21.298Z,71.50
2022-09-09T16:52:00.467Z,73.25
2022-09-09T16:54:37.279Z,74.50
2022-09-09T16:57:15.852Z,72.50
2022-09-09T16:59:48.031Z,71.50
2022-09-09T17:02:25.130Z,73.75
2022-09-09T17:04:55.548Z,73.50
2022-09-09T17:07:27.535Z,72.00
2022-09-09T17:09:57.778Z,71.25
2022-09-09T17:12:42.352Z,71.50
2022-09-09T17:15:14.344Z,75.25
2022-09-09T17:17:49.472Z,74.75
2022-09-09T17:20:24.513Z,73.75
2022-09-09T17:23:11.083Z,74.50
2022-09-09T17:25:41.190Z,74.75
2022-09-09T17:28:10.888Z,75.50
2022-09-09T17:30:43.030Z,72.00
2022-09-09T17:33:13.350Z,71.75
2022-09-09T17:35:50.055Z,71.00
2022-09-09T17:38:22.690Z,74.50
2022-09-09T17:41:03.397Z,73.75
2022-09-09T17:43:33.672Z,73.50
2022-09-09T17:46:19.935Z,70.75
2022-09-09T17:48:53.556Z,73.50
2022-09-09T17:51:29.522Z,75.50
2022-09-09T17:54:01.141Z,70.50
2022-09-09T17:56:34.985Z,72.50
2022-09-09T17:59:10.375Z,70.75
2022-09-09T18:01:41.270Z,75.50
2022-09-09T18:04:12.328Z,71.75
2022-09-09T18:06:44.109Z,74.50
2022-09-09T18:09:15.868Z,73.25
2022-09-09T18:14:37.660Z,73.50
2022-09-09T18:17:07.711Z,74.25
2022-09-09T18:19:40.601Z,74.50
2022-09-09T18:22:10.946Z,75.50
2022-09-09T18:24:41.923Z,75.25
2022-09-09T18:27:12.105Z,74.00
2022-09-09T18:29:43.756Z,75.75
2022-09-09T18:32:16.248Z,74.75
2022-09-09T18:34:55.597Z,74.25
2022-09-09T18:37:25.714Z,73.25
2022-09-09T18:39:58.263Z,74.00
2022-09-09T18:42:29.285Z,75.25
2022-09-09T18:45:07.078Z,73.25
2022-09-09T18:47:40.020Z,76.50
2022-09-09T18:50:09.889Z,76.75
2022-09-09T18:52:44.071Z,76.75
2022-09-09T18:55:14.755Z,71.75
2022-09-09T18:57:44.731Z,74.25
2022-09-09T19:00:17.522Z,76.75
2022-09-09T19:02:53.694Z,74.75
2022-09-09T19:08:06.463Z,73.25
2022-09-09T19:10:39.518Z,75.50
2022-09-09T19:13:10.234Z,73.25
2022-09-09T19:15:41.735Z,77.50
2022-09-09T19:18:11.942Z,79.50
2022-09-09T19:20:47.330Z,74.50
2022-09-09T19:23:22.283Z,72.50
2022-09-09T19:25:52.609Z,74.75
2022-09-09T19:28:22.573Z,74.50
2022-09-09T19:30:52.609Z,76.00
2022-09-09T19:33:28.157Z,75.50
2022-09-09T19:36:08.828Z,78.00
2022-09-09T19:38:47.884Z,72.75
2022-09-09T19:41:20.225Z,75.00
2022-09-09T19:43:54.645Z,75.00
2022-09-09T19:46:27.372Z,74.75
2022-09-09T19:49:01.643Z,74.00
2022-09-09T19:51:32.597Z,74.50
2022-09-09T19:54:12.494Z,73.50
2022-09-09T19:56:46.060Z,75.00
2022-09-09T19:59:16.688Z,72.25
2022-09-09T20:01:47.218Z,74.50
2022-09-09T20:04:18.844Z,75.25
2022-09-09T20:06:51.104Z,75.00
2022-09-09T20:09:33.169Z,74.50
2022-09-09T20:12:03.545Z,74.75
2022-09-09T20:14:38.643Z,74.75
2022-09-09T20:17:14.790Z,75.00
2022-09-09T20:19:44.761Z,76.00
2022-09-09T20:22:14.236Z,71.50
2022-09-09T20:24:45.004Z,74.75
2022-09-09T20:27:15.456Z,74.75
2022-09-09T20:29:45.771Z,75.00
2022-09-09T20:32:15.845Z,71.50
2022-09-09T20:34:48.380Z,76.25
2022-09-09T20:37:19.317Z,71.75
2022-09-09T20:39:50.195Z,72.00
2022-09-09T20:42:24.721Z,74.50
2022-09-09T20:45:04.026Z,74.75
2022-09-09T20:47:34.164Z,75.00
2022-09-09T20:50:04.499Z,75.25
2022-09-09T20:52:34.518Z,74.75
2022-09-09T20:55:04.251Z,71.50
2022-09-09T20:57:34.145Z,75.75
2022-09-09T21:00:04.542Z,71.50
2022-09-09T21:02:34.881Z,76.25
2022-09-09T21:05:07.815Z,75.00
2022-09-09T21:07:37.767Z,74.00
2022-09-09T21:10:07.861Z,74.75
2022-09-09T21:12:40.672Z,74.00
2022-09-09T21:15:10.646Z,72.75
2022-09-09T21:17:43.123Z,75.00
2022-09-09T21:20:12.879Z,72.50
2022-09-09T21:22:42.629Z,74.25
2022-09-09T21:25:12.931Z,74.25
2022-09-09T21:27:42.807Z,75.00
2022-09-09T21:30:12.995Z,75.25
2022-09-09T21:32:42.749Z,73.75
2022-09-09T21:35:14.001Z,74.00
2022-09-09T21:37:43.826Z,72.25
2022-09-09T21:40:13.718Z,72.25
2022-09-09T21:42:46.656Z,73.50
2022-09-09T21:45:16.849Z,74.00
2022-09-09T21:47:48.612Z,73.00
2022-09-09T21:50:18.827Z,73.25
2022-09-09T21:52:48.538Z,72.00
2022-09-09T21:55:18.548Z,72.50
2022-09-09T21:57:48.288Z,75.75
2022-09-09T22:00:19.737Z,71.25
2022-09-09T22:02:49.574Z,72.75
2022-09-09T22:05:19.310Z,71.50
2022-09-09T22:07:48.995Z,70.50
2022-09-09T22:10:21.326Z,72.75
2022-09-09T22:12:51.219Z,72.25
2022-09-09T22:15:20.995Z,71.25
2022-09-09T22:17:53.605Z,87.50
2022-09-09T22:20:23.540Z,81.75
2022-09-09T22:22:53.530Z,92.75
2022-09-09T22:25:23.256Z,86.00
2022-09-09T22:27:52.976Z,86.00
2022-09-09T22:30:23.255Z,89.00
2022-09-09T22:32:53.762Z,83.50
2022-09-09T22:35:29.051Z,80.25
2022-09-09T22:38:02.394Z,81.50
2022-09-09T22:40:35.157Z,85.75
2022-09-09T22:43:05.003Z,89.75
2022-09-09T22:45:34.771Z,89.75
2022-09-09T22:48:12.062Z,84.25
2022-09-09T22:50:45.863Z,90.25
2022-09-09T22:53:16.781Z,88.00
2022-09-09T22:56:07.840Z,81.00
2022-09-09T22:58:43.227Z,87.00
2022-09-09T23:01:18.683Z,82.00
2022-09-09T23:03:51.523Z,86.75
2022-09-09T23:06:26.396Z,93.25
2022-09-09T23:09:02.843Z,88.75
2022-09-09T23:11:37.337Z,86.50
2022-09-09T23:14:10.679Z,88.50
2022-09-09T23:16:42.036Z,89.25
2022-09-09T23:19:13.173Z,89.50
2022-09-09T23:21:43.543Z,88.50
2022-09-09T23:24:17.523Z,88.00
2022-09-09T23:26:48.223Z,83.75
2022-09-09T23:29:18.491Z,90.00
2022-09-09T23:31:48.632Z,87.75
2022-09-09T23:34:18.416Z,92.00
2022-09-09T23:36:51.600Z,94.25
2022-09-09T23:39:21.800Z,82.50
2022-09-09T23:41:55.484Z,91.75
2022-09-09T23:44:25.389Z,86.75
2022-09-09T23:46:57.976Z,82.50
2022-09-09T23:49:28.301Z,80.25
2022-09-09T23:51:58.012Z,90.50
2022-09-09T23:54:31.001Z,85.00
2022-09-09T23:57:00.971Z,78.25
2022-09-09T23:59:32.634Z,77.00
